Time;durP1;ratioP1;P1;durP2;ratioP2;P2;SDS_P1;SDS_P2;PMS_P1;PMS_P2;Temp;Humidity;BMP_temperature;BMP_pressure;BME280_temperature;BME280_humidity;BME280_pressure;Samples;Min_cycle;Max_cycle;Signal;HPM_P1;HPM_P2
2022/10/28 00:01:05;;;;;;;74.13;14.63;;;16.60;99.90;;;;;;5043572;28;20478;-85
2022/10/28 00:03:32;;;;;;;77.70;15.43;;;16.60;99.90;;;;;;5042935;28;20403;-85
2022/10/28 00:06:09;;;;;;;77.37;23.97;;;16.70;99.90;;;;;;5043867;28;20399;-85
2022/10/28 00:08:35;;;;;;;72.40;15.30;;;16.70;99.90;;;;;;5042459;28;20475;-85
2022/10/28 00:11:16;;;;;;;76.20;18.10;;;16.70;99.90;;;;;;5042554;28;20411;-85
2022/10/28 00:13:44;;;;;;;78.70;15.80;;;16.70;99.90;;;;;;5042339;28;20413;-85
2022/10/28 00:16:13;;;;;;;75.53;12.60;;;16.70;99.90;;;;;;5041616;28;20429;-85
2022/10/28 00:18:39;;;;;;;83.40;15.70;;;16.80;99.90;;;;;;5043455;28;20841;-85
2022/10/28 00:21:17;;;;;;;80.00;12.10;;;16.80;99.90;;;;;;5041139;28;20494;-85
2022/10/28 00:23:43;;;;;;;75.60;15.23;;;16.80;99.90;;;;;;5042066;28;20395;-85
2022/10/28 00:26:15;;;;;;;77.10;16.40;;;16.80;99.90;;;;;;5044934;28;20390;-85
2022/10/28 00:28:46;;;;;;;80.17;15.10;;;16.80;99.90;;;;;;5048383;28;20430;-85
2022/10/28 00:31:15;;;;;;;74.70;16.70;;;16.80;99.90;;;;;;5049682;28;20458;-85
2022/10/28 00:33:41;;;;;;;77.37;21.47;;;16.80;99.90;;;;;;5047077;28;20419;-85
2022/10/28 00:36:08;;;;;;;73.40;16.27;;;16.80;99.90;;;;;;5047729;28;20982;-85
2022/10/28 00:38:33;;;;;;;79.40;14.77;;;16.80;99.90;;;;;;5047971;28;20517;-85
2022/10/28 00:40:59;;;;;;;74.17;16.27;;;16.80;99.90;;;;;;5047004;28;20552;-85
2022/10/28 00:43:55;;;;;;;72.63;11.87;;;16.80;99.90;;;;;;5048371;28;20176;-85
2022/10/28 00:46:53;;;;;;;73.87;11.37;;;16.90;99.90;;;;;;5030885;28;20188;-85
2022/10/28 00:49:27;;;;;;;75.93;13.50;;;16.90;99.90;;;;;;5031593;28;20458;-85
2022/10/28 00:51:59;;;;;;;73.83;12.23;;;16.90;99.90;;;;;;5048994;28;20390;-85
2022/10/28 00:54:25;;;;;;;73.53;10.50;;;16.90;99.90;;;;;;5049014;28;20384;-85
2022/10/28 00:56:54;;;;;;;74.90;10.70;;;16.90;99.90;;;;;;5047999;28;20443;-85
2022/10/28 00:59:31;;;;;;;76.43;11.13;;;16.90;99.90;;;;;;5048147;28;20998;-85
2022/10/28 01:01:57;;;;;;;76.53;12.90;;;16.90;99.90;;;;;;5046761;28;20449;-85
2022/10/28 01:04:23;;;;;;;74.90;14.67;;;16.90;99.90;;;;;;5047914;28;20908;-85
2022/10/28 01:06:50;;;;;;;79.17;15.40;;;16.80;99.90;;;;;;5048326;28;20470;-85
2022/10/28 01:09:16;;;;;;;79.60;16.63;;;16.70;99.90;;;;;;5046947;28;20444;-85
2022/10/28 01:12:10;;;;;;;75.00;14.00;;;16.70;99.90;;;;;;5046967;28;20478;-85
2022/10/28 01:15:05;;;;;;;74.97;11.30;;;16.80;99.90;;;;;;5046420;28;20544;-85
2022/10/28 01:17:56;;;;;;;70.77;12.00;;;16.80;99.90;;;;;;5047518;28;20391;-85
2022/10/28 01:20:48;;;;;;;72.57;13.90;;;16.80;99.90;;;;;;5046409;28;20431;-85
2022/10/28 01:23:29;;;;;;;74.93;15.60;;;16.80;99.90;;;;;;5048271;28;20391;-85
2022/10/28 01:25:58;;;;;;;74.37;12.67;;;16.70;99.90;;;;;;5047123;28;20423;-85
2022/10/28 01:29:04;;;;;;;73.50;11.60;;;16.80;99.90;;;;;;5047127;28;20414;-85
2022/10/28 01:31:41;;;;;;;71.17;11.47;;;16.80;99.90;;;;;;5047083;28;20421;-85
2022/10/28 01:34:18;;;;;;;71.97;11.97;;;16.90;99.90;;;;;;5047416;28;20379;-85
2022/10/28 01:37:13;;;;;;;75.57;13.70;;;16.80;99.90;;;;;;5046741;28;20417;-85
2022/10/28 01:39:53;;;;;;;74.10;12.07;;;16.70;99.90;;;;;;5044869;28;20456;-85
2022/10/28 01:42:34;;;;;;;74.30;11.70;;;16.70;99.90;;;;;;5043415;28;20849;-85
2022/10/28 01:45:23;;;;;;;86.13;12.67;;;16.70;99.90;;;;;;5043193;28;20506;-85
2022/10/28 01:48:09;;;;;;;77.73;13.10;;;16.60;99.90;;;;;;5045490;28;20421;-85
2022/10/28 01:50:51;;;;;;;73.83;14.77;;;16.60;99.90;;;;;;5045165;28;20463;-85
2022/10/28 01:53:23;;;;;;;79.40;12.20;;;16.60;99.90;;;;;;5045374;28;20391;-85
2022/10/28 01:55:51;;;;;;;80.50;12.87;;;16.60;99.90;;;;;;5043454;28;20411;-85
2022/10/28 01:58:22;;;;;;;74.23;10.97;;;16.60;99.90;;;;;;5045418;28;20829;-85
2022/10/28 02:00:49;;;;;;;73.87;10.63;;;16.70;99.90;;;;;;5044869;28;20578;-85
2022/10/28 02:03:16;;;;;;;72.57;10.27;;;16.70;99.90;;;;;;5045143;28;20423;-85
2022/10/28 02:05:48;;;;;;;73.53;10.47;;;16.70;99.90;;;;;;5044234;28;20431;-85
2022/10/28 02:08:16;;;;;;;74.90;11.40;;;16.70;99.90;;;;;;5043954;28;20406;-85
2022/10/28 02:10:59;;;;;;;70.80;10.20;;;16.60;99.90;;;;;;5044340;28;20474;-85
2022/10/28 02:13:38;;;;;;;74.87;11.27;;;16.70;99.90;;;;;;5042901;28;20400;-85
2022/10/28 02:16:17;;;;;;;69.53;9.30;;;16.60;99.90;;;;;;5042936;28;20402;-85
2022/10/28 02:18:49;;;;;;;73.27;9.83;;;16.60;99.90;;;;;;5043723;28;20426;-85
2022/10/28 02:21:30;;;;;;;75.30;9.70;;;16.60;99.90;;;;;;5043752;28;20447;-85
2022/10/28 02:24:07;;;;;;;74.27;11.03;;;16.60;99.90;;;;;;5042620;28;20444;-85
2022/10/28 02:26:45;;;;;;;71.63;12.70;;;16.60;99.90;;;;;;5044296;28;20438;-85
2022/10/28 02:29:30;;;;;;;80.80;12.57;;;16.50;99.90;;;;;;5043632;28;21019;-85
2022/10/28 02:32:02;;;;;;;73.47;9.30;;;16.40;99.90;;;;;;5044336;28;20380;-85
2022/10/28 02:34:36;;;;;;;75.13;9.50;;;16.50;99.90;;;;;;5044039;28;20391;-85
2022/10/28 02:37:07;;;;;;;76.87;9.20;;;16.50;99.90;;;;;;5043777;28;20390;-85
2022/10/28 02:39:38;;;;;;;73.97;9.63;;;16.40;99.90;;;;;;5044614;28;20441;-85
2022/10/28 02:42:20;;;;;;;74.60;11.53;;;16.40;99.90;;;;;;5044109;28;20441;-85
2022/10/28 02:44:51;;;;;;;72.63;11.53;;;16.30;99.90;;;;;;5043689;28;20474;-85
2022/10/28 02:47:22;;;;;;;71.23;12.40;;;16.30;99.90;;;;;;5043930;28;20391;-85
2022/10/28 02:49:52;;;;;;;78.63;13.10;;;16.30;99.90;;;;;;5043733;28;20420;-85
2022/10/28 02:52:19;;;;;;;72.07;14.60;;;16.20;99.90;;;;;;5042531;28;20413;-85
2022/10/28 02:54:53;;;;;;;74.77;13.67;;;16.20;99.90;;;;;;5058526;28;20421;-85
2022/10/28 02:57:28;;;;;;;76.80;13.10;;;16.20;99.90;;;;;;5042291;28;20398;-85
2022/10/28 02:59:59;;;;;;;75.80;14.03;;;16.20;99.90;;;;;;5041649;28;20435;-85
2022/10/28 03:02:25;;;;;;;79.73;17.77;;;16.20;99.90;;;;;;5044149;28;20460;-85
2022/10/28 03:04:51;;;;;;;74.73;13.17;;;16.20;99.90;;;;;;5042960;28;20410;-85
2022/10/28 03:07:17;;;;;;;74.53;12.43;;;16.20;99.90;;;;;;5043056;28;20806;-85
2022/10/28 03:09:43;;;;;;;75.47;12.50;;;16.20;99.90;;;;;;5043622;28;20428;-85
2022/10/28 03:12:09;;;;;;;76.17;13.13;;;16.20;99.90;;;;;;5041947;28;20416;-85
2022/10/28 03:14:34;;;;;;;71.77;11.90;;;16.30;99.90;;;;;;5043608;28;20167;-85
2022/10/28 03:17:00;;;;;;;77.20;10.00;;;16.30;99.90;;;;;;5041464;28;20195;-85
2022/10/28 03:19:26;;;;;;;73.30;9.53;;;16.30;99.90;;;;;;5042989;28;20432;-85
2022/10/28 03:21:51;;;;;;;74.53;10.60;;;16.30;99.90;;;;;;5042359;28;20200;-85
2022/10/28 03:24:17;;;;;;;70.33;10.00;;;16.30;99.90;;;;;;5043157;28;20666;-85
2022/10/28 03:26:43;;;;;;;71.93;8.20;;;16.30;99.90;;;;;;5042996;28;20197;-85
2022/10/28 03:29:08;;;;;;;72.17;9.83;;;16.30;99.90;;;;;;5041395;28;20202;-85
2022/10/28 03:31:34;;;;;;;79.93;9.90;;;16.20;99.90;;;;;;5041725;28;20189;-85
2022/10/28 03:34:00;;;;;;;70.03;8.93;;;16.20;99.90;;;;;;5042816;28;20194;-85
2022/10/28 03:36:26;;;;;;;76.60;9.90;;;16.20;99.90;;;;;;5042505;28;20171;-85
2022/10/28 03:38:51;;;;;;;70.13;8.53;;;16.20;99.90;;;;;;5042023;28;20191;-85
2022/10/28 03:41:17;;;;;;;72.77;8.37;;;16.20;99.90;;;;;;5041239;28;20522;-85
2022/10/28 03:43:43;;;;;;;75.90;9.10;;;16.20;99.90;;;;;;5042504;28;20167;-85
2022/10/28 03:46:09;;;;;;;71.33;8.30;;;16.20;99.90;;;;;;5042273;28;20163;-85
2022/10/28 03:48:34;;;;;;;70.17;8.60;;;16.20;99.90;;;;;;5040403;28;20479;-85
2022/10/28 03:51:00;;;;;;;75.50;8.23;;;16.20;99.90;;;;;;5041474;28;20245;-85
2022/10/28 03:53:26;;;;;;;75.70;9.23;;;16.20;99.90;;;;;;5042526;28;20194;-85
2022/10/28 03:55:57;;;;;;;70.27;10.10;;;16.10;99.90;;;;;;5042779;28;20202;-85
2022/10/28 03:58:23;;;;;;;73.03;9.30;;;16.10;99.90;;;;;;5040481;28;20180;-85
2022/10/28 04:00:49;;;;;;;69.90;8.30;;;16.00;99.90;;;;;;5041893;28;20494;-85
2022/10/28 04:03:16;;;;;;;72.67;7.70;;;16.10;99.90;;;;;;5041942;28;20473;-85
2022/10/28 04:05:42;;;;;;;76.80;8.97;;;16.00;99.90;;;;;;5041510;28;20406;-85
2022/10/28 04:08:08;;;;;;;72.33;8.20;;;16.00;99.90;;;;;;5041507;28;20403;-85
2022/10/28 04:10:34;;;;;;;68.97;8.80;;;16.00;99.90;;;;;;5041464;28;20406;-85
2022/10/28 04:13:01;;;;;;;74.70;9.90;;;15.90;99.90;;;;;;5041373;28;20413;-85
2022/10/28 04:15:27;;;;;;;69.87;9.20;;;15.90;99.90;;;;;;5042674;28;20920;-85
2022/10/28 04:17:53;;;;;;;74.53;8.80;;;15.80;99.90;;;;;;5041886;28;20476;-85
2022/10/28 04:20:18;;;;;;;74.07;10.37;;;15.70;99.90;;;;;;5042001;28;20183;-85
2022/10/28 04:22:44;;;;;;;71.70;9.93;;;15.80;99.90;;;;;;5042338;28;20159;-85
2022/10/28 04:25:10;;;;;;;73.70;9.80;;;15.70;99.90;;;;;;5041955;28;20657;-85
2022/10/28 04:27:36;;;;;;;73.70;9.27;;;15.70;99.90;;;;;;5042094;28;20161;-85
2022/10/28 04:30:02;;;;;;;74.37;10.50;;;15.60;99.90;;;;;;5040425;28;20190;-85
2022/10/28 04:32:28;;;;;;;76.47;11.17;;;15.60;99.90;;;;;;5041612;28;20192;-85
2022/10/28 04:34:54;;;;;;;83.37;13.33;;;15.60;99.90;;;;;;5043884;28;20409;-85
2022/10/28 04:37:20;;;;;;;73.13;12.37;;;15.60;99.90;;;;;;5042650;28;20197;-85
2022/10/28 04:39:45;;;;;;;80.87;13.93;;;15.60;99.90;;;;;;5043317;28;20183;-85
2022/10/28 04:42:11;;;;;;;73.87;11.57;;;15.60;99.90;;;;;;5041991;28;20190;-85
2022/10/28 04:44:37;;;;;;;76.87;15.03;;;15.60;99.90;;;;;;5042224;28;20163;-85
2022/10/28 04:47:02;;;;;;;80.00;14.90;;;15.60;99.90;;;;;;5042294;28;20162;-85
2022/10/28 04:49:28;;;;;;;76.80;12.73;;;15.60;99.90;;;;;;5042550;28;20662;-85
2022/10/28 04:51:53;;;;;;;79.93;13.97;;;15.60;99.90;;;;;;5041695;28;20164;-84
2022/10/28 04:54:19;;;;;;;72.47;13.10;;;15.70;99.90;;;;;;5042545;28;20165;-85
2022/10/28 04:56:48;;;;;;;74.80;13.43;;;15.70;99.90;;;;;;5042785;28;20166;-84
2022/10/28 04:59:13;;;;;;;75.53;12.13;;;15.70;99.90;;;;;;5042096;28;20219;-85
2022/10/28 05:01:39;;;;;;;74.20;11.60;;;15.70;99.90;;;;;;5042468;28;20828;-85
2022/10/28 05:04:05;;;;;;;76.13;12.20;;;15.70;99.90;;;;;;5041372;28;20170;-85
2022/10/28 05:06:30;;;;;;;72.13;9.53;;;15.70;99.90;;;;;;5042319;28;20158;-85
2022/10/28 05:08:56;;;;;;;79.23;10.37;;;15.70;99.90;;;;;;5041871;28;20186;-85
2022/10/28 05:11:22;;;;;;;79.67;10.10;;;15.70;99.90;;;;;;5041986;28;20553;-85
2022/10/28 05:13:52;;;;;;;70.30;8.63;;;15.70;99.90;;;;;;5044168;28;20167;-85
2022/10/28 05:16:17;;;;;;;74.77;9.30;;;15.70;99.90;;;;;;5061114;28;20213;-85
2022/10/28 05:18:43;;;;;;;72.80;10.50;;;15.70;99.90;;;;;;5045355;28;20429;-85
2022/10/28 05:21:09;;;;;;;77.60;10.70;;;15.60;99.90;;;;;;5044390;28;20187;-85
2022/10/28 05:26:05;;;;;;;79.60;10.30;;;15.60;99.90;;;;;;5018475;28;20206;-82
2022/10/28 05:28:30;;;;;;;77.97;10.07;;;15.60;99.90;;;;;;5019958;28;20804;-82
2022/10/28 05:30:56;;;;;;;70.73;9.33;;;15.50;99.90;;;;;;5018939;28;20759;-82
2022/10/28 05:33:22;;;;;;;74.23;9.27;;;15.50;99.90;;;;;;5019884;28;20198;-82
2022/10/28 05:35:48;;;;;;;80.87;10.00;;;15.40;99.90;;;;;;5019435;28;20171;-82
2022/10/28 05:38:13;;;;;;;74.33;10.10;;;15.40;99.90;;;;;;5019535;28;20175;-82
2022/10/28 05:40:39;;;;;;;73.90;10.43;;;15.40;99.90;;;;;;5019445;28;20457;-82
2022/10/28 05:43:05;;;;;;;77.43;10.17;;;15.40;99.90;;;;;;5018960;28;20167;-82
2022/10/28 05:45:31;;;;;;;78.07;11.10;;;15.50;99.90;;;;;;5019509;28;20164;-82
2022/10/28 05:47:57;;;;;;;74.20;9.40;;;15.50;99.90;;;;;;5019945;28;20555;-82
2022/10/28 05:50:22;;;;;;;75.23;10.27;;;15.50;99.90;;;;;;5019272;28;20450;-82
2022/10/28 05:52:50;;;;;;;74.60;11.37;;;15.40;99.90;;;;;;5019515;28;20425;-82
2022/10/28 05:55:21;;;;;;;86.37;11.00;;;15.40;99.90;;;;;;5019350;28;20164;-82
2022/10/28 05:57:47;;;;;;;73.43;11.73;;;15.40;99.90;;;;;;5019882;28;20389;-82
2022/10/28 06:00:14;;;;;;;73.70;12.37;;;15.40;99.90;;;;;;5018821;28;20449;-82
2022/10/28 06:02:40;;;;;;;75.17;10.77;;;15.40;99.90;;;;;;5018793;28;20437;-82
2022/10/28 06:05:08;;;;;;;75.17;11.07;;;15.40;99.90;;;;;;5019163;28;20440;-82
2022/10/28 06:07:34;;;;;;;74.80;11.40;;;15.40;99.90;;;;;;5019939;28;20794;-82
2022/10/28 06:10:01;;;;;;;75.57;12.87;;;15.40;99.90;;;;;;5018927;28;20430;-82
2022/10/28 06:12:26;;;;;;;84.87;13.97;;;15.30;99.90;;;;;;5018947;28;20488;-82
2022/10/28 06:14:52;;;;;;;86.40;16.50;;;15.30;99.90;;;;;;5018045;28;20418;-82
2022/10/28 06:17:18;;;;;;;82.40;14.63;;;15.40;99.90;;;;;;5018701;28;20171;-82
2022/10/28 06:19:43;;;;;;;80.33;16.63;;;15.40;99.90;;;;;;5018666;28;20234;-82
2022/10/28 06:22:10;;;;;;;76.57;13.27;;;15.40;99.90;;;;;;5017433;28;20195;-82
2022/10/28 06:24:35;;;;;;;78.07;16.90;;;15.40;99.90;;;;;;5018721;28;20597;-82
2022/10/28 06:27:01;;;;;;;74.07;13.37;;;15.40;99.90;;;;;;5018778;28;20410;-82
2022/10/28 06:29:27;;;;;;;75.90;14.40;;;15.40;99.90;;;;;;5018705;28;20183;-82
2022/10/28 06:31:53;;;;;;;76.83;15.67;;;15.40;99.90;;;;;;5018619;28;20167;-82
2022/10/28 06:34:19;;;;;;;76.47;14.10;;;15.40;99.90;;;;;;5018564;28;20246;-82
2022/10/28 06:36:44;;;;;;;80.97;20.13;;;15.40;99.90;;;;;;5017909;28;20161;-82
2022/10/28 06:39:10;;;;;;;75.97;22.80;;;15.40;99.90;;;;;;5018723;28;20483;-82
2022/10/28 06:41:36;;;;;;;94.57;25.03;;;15.40;99.90;;;;;;5033635;28;20195;-82
2022/10/28 06:44:01;;;;;;;84.90;25.53;;;15.40;99.90;;;;;;5033289;28;20270;-82
2022/10/28 06:46:27;;;;;;;80.37;24.03;;;15.40;99.90;;;;;;5018471;28;20173;-82
2022/10/28 06:48:54;;;;;;;84.30;25.93;;;15.50;99.90;;;;;;5017855;28;20190;-82
2022/10/28 06:51:20;;;;;;;75.93;20.90;;;15.50;99.90;;;;;;5018188;28;20167;-82
2022/10/28 06:53:52;;;;;;;73.07;17.33;;;15.50;99.90;;;;;;5017784;28;20405;-82
2022/10/28 06:56:18;;;;;;;72.13;14.50;;;15.60;99.90;;;;;;5018293;28;20585;-82
2022/10/28 06:58:49;;;;;;;77.57;14.60;;;15.70;99.90;;;;;;5017616;28;20505;-82
2022/10/28 07:01:15;;;;;;;78.57;15.00;;;15.70;99.90;;;;;;5018720;28;20442;-85
2022/10/28 07:03:40;;;;;;;80.30;13.20;;;15.70;99.90;;;;;;5017756;28;20405;-82
2022/10/28 07:06:06;;;;;;;73.80;11.87;;;15.70;99.90;;;;;;5017916;28;20162;-82
2022/10/28 07:08:32;;;;;;;77.07;12.47;;;15.80;99.90;;;;;;5017917;28;20210;-82
2022/10/28 07:10:59;;;;;;;76.97;12.07;;;15.80;99.90;;;;;;5017525;28;20172;-82
2022/10/28 07:13:25;;;;;;;82.10;13.10;;;15.80;99.90;;;;;;5017686;28;20172;-82
2022/10/28 07:15:57;;;;;;;72.43;13.23;;;15.80;99.90;;;;;;5017466;28;20526;-82
2022/10/28 07:18:24;;;;;;;80.20;13.97;;;15.70;99.90;;;;;;5017420;28;20822;-82
2022/10/28 07:20:50;;;;;;;76.63;18.80;;;15.80;99.90;;;;;;5017508;28;20449;-82
2022/10/28 07:23:16;;;;;;;84.30;16.67;;;15.70;99.90;;;;;;5017001;28;20401;-82
2022/10/28 07:25:42;;;;;;;82.00;14.20;;;15.70;99.90;;;;;;5017263;28;20861;-81
2022/10/28 07:28:07;;;;;;;74.60;13.23;;;15.80;99.90;;;;;;5017391;28;20163;-82
2022/10/28 07:30:33;;;;;;;73.90;12.63;;;15.90;99.90;;;;;;5016985;28;20253;-82
2022/10/28 07:33:00;;;;;;;79.33;13.40;;;15.90;99.90;;;;;;5015708;28;20175;-82
2022/10/28 07:35:29;;;;;;;75.43;12.30;;;15.80;99.90;;;;;;5016721;28;20151;-82
2022/10/28 07:37:56;;;;;;;78.43;11.27;;;15.90;99.90;;;;;;5017526;28;20433;-82
2022/10/28 07:40:23;;;;;;;73.50;10.97;;;15.90;99.90;;;;;;5016674;28;20991;-82
2022/10/28 07:42:49;;;;;;;75.87;12.00;;;16.00;99.90;;;;;;5017305;28;20775;-82
2022/10/28 07:45:16;;;;;;;77.07;13.97;;;16.00;99.90;;;;;;5017429;28;20402;-82
2022/10/28 07:47:42;;;;;;;79.60;14.97;;;16.10;99.90;;;;;;5017554;28;20444;-82
2022/10/28 07:50:09;;;;;;;77.00;18.60;;;16.10;99.90;;;;;;5016356;28;20445;-82
2022/10/28 07:52:36;;;;;;;85.10;20.57;;;16.20;99.90;;;;;;5017319;28;20402;-82
2022/10/28 07:55:06;;;;;;;79.13;19.80;;;16.20;99.90;;;;;;5017522;28;20757;-82
2022/10/28 07:57:33;;;;;;;79.23;20.53;;;16.20;99.90;;;;;;5015900;28;20406;-82
2022/10/28 07:59:59;;;;;;;76.37;12.77;;;16.30;99.90;;;;;;5017382;28;20422;-82
2022/10/28 08:02:25;;;;;;;80.87;15.90;;;16.40;99.90;;;;;;5017087;28;20512;-82
2022/10/28 08:04:51;;;;;;;93.63;15.27;;;16.40;99.90;;;;;;5016886;28;20963;-82
2022/10/28 08:07:18;;;;;;;76.67;13.47;;;16.50;99.90;;;;;;5016386;28;20175;-82
2022/10/28 08:09:43;;;;;;;77.37;15.20;;;16.60;99.90;;;;;;5016556;28;20431;-82
2022/10/28 08:12:13;;;;;;;77.50;16.03;;;16.60;99.90;;;;;;5016563;28;20399;-82
2022/10/28 08:14:38;;;;;;;87.07;16.80;;;16.60;99.90;;;;;;5017364;28;20687;-82
2022/10/28 08:17:04;;;;;;;79.07;13.47;;;16.70;99.90;;;;;;5016440;28;20401;-82
2022/10/28 08:19:30;;;;;;;85.73;16.60;;;16.70;99.90;;;;;;5016775;28;20702;-82
2022/10/28 08:21:56;;;;;;;83.30;15.10;;;16.70;99.90;;;;;;5016481;28;20598;-82
2022/10/28 08:24:22;;;;;;;75.50;12.87;;;16.70;99.90;;;;;;5016483;28;20595;-82
2022/10/28 08:26:48;;;;;;;75.13;13.30;;;16.70;99.90;;;;;;5016251;28;20484;-82
2022/10/28 08:29:13;;;;;;;83.23;13.90;;;16.70;99.90;;;;;;5016749;28;20425;-82
2022/10/28 08:31:39;;;;;;;74.60;12.60;;;16.70;99.90;;;;;;5016675;28;20169;-82
2022/10/28 08:34:06;;;;;;;77.53;11.90;;;16.70;99.90;;;;;;5016317;28;20249;-82
2022/10/28 08:36:31;;;;;;;75.00;12.23;;;16.70;99.90;;;;;;5016812;28;20490;-82
2022/10/28 08:39:01;;;;;;;75.40;13.60;;;16.70;99.90;;;;;;5016233;28;20474;-82
2022/10/28 08:41:46;;;;;;;72.77;11.50;;;16.90;99.90;;;;;;5015400;28;20266;-82
2022/10/28 08:44:36;;;;;;;82.53;15.40;;;16.90;99.90;;;;;;5015214;28;20439;-82
2022/10/28 08:47:23;;;;;;;78.70;13.13;;;17.00;99.90;;;;;;5017564;28;20470;-83
2022/10/28 08:49:55;;;;;;;78.17;10.90;;;17.10;99.90;;;;;;5020263;28;20425;-82
2022/10/28 08:52:33;;;;;;;75.93;11.80;;;17.10;99.90;;;;;;5019028;28;20393;-82
2022/10/28 08:55:12;;;;;;;74.17;12.67;;;17.20;99.90;;;;;;5020769;28;20436;-82
2022/10/28 08:57:43;;;;;;;75.07;11.27;;;17.20;99.90;;;;;;5020608;28;20525;-82
2022/10/28 09:00:17;;;;;;;77.77;12.63;;;17.30;99.90;;;;;;5020512;28;20424;-82
2022/10/28 09:02:55;;;;;;;78.60;14.80;;;17.20;99.90;;;;;;5020479;28;20439;-82
2022/10/28 09:05:25;;;;;;;76.97;11.53;;;17.20;99.90;;;;;;5020415;28;20385;-82
2022/10/28 09:07:52;;;;;;;78.40;13.00;;;17.30;99.90;;;;;;5020684;28;20496;-83
2022/10/28 09:10:43;;;;;;;78.23;14.17;;;17.30;99.90;;;;;;5020839;28;20418;-82
2022/10/28 09:13:23;;;;;;;77.30;14.83;;;17.40;99.90;;;;;;5019078;28;20425;-83
2022/10/28 09:16:07;;;;;;;77.20;16.23;;;17.50;99.90;;;;;;5021005;28;20419;-83
2022/10/28 09:18:54;;;;;;;77.90;13.07;;;17.60;99.90;;;;;;5020780;28;20775;-83
2022/10/28 09:21:40;;;;;;;75.00;11.83;;;17.70;99.90;;;;;;5020141;28;20479;-82
2022/10/28 09:24:19;;;;;;;77.70;11.50;;;17.90;99.90;;;;;;5020164;28;20408;-82
2022/10/28 09:26:51;;;;;;;80.33;10.80;;;18.00;99.90;;;;;;5020090;28;20439;-82
2022/10/28 09:29:24;;;;;;;84.47;9.10;;;18.00;99.90;;;;;;5019441;28;20421;-82
2022/10/28 09:31:55;;;;;;;75.80;11.00;;;18.10;99.90;;;;;;5019963;28;20900;-82
2022/10/28 09:34:38;;;;;;;72.50;11.33;;;18.10;99.90;;;;;;5019989;28;20447;-82
2022/10/28 09:37:13;;;;;;;76.97;10.73;;;18.10;99.90;;;;;;5019874;28;20445;-82
2022/10/28 09:39:48;;;;;;;72.90;10.10;;;18.20;99.90;;;;;;5020446;28;20427;-82
2022/10/28 09:42:21;;;;;;;74.27;11.23;;;18.20;99.90;;;;;;5019811;28;20523;-82
2022/10/28 09:45:01;;;;;;;85.10;12.00;;;18.40;99.90;;;;;;5019986;28;20472;-82
2022/10/28 09:47:34;;;;;;;76.47;9.63;;;18.50;99.90;;;;;;5019770;28;20408;-82
2022/10/28 09:50:04;;;;;;;77.50;10.93;;;18.70;99.90;;;;;;5020348;28;20781;-82
2022/10/28 09:52:41;;;;;;;72.53;9.10;;;18.90;99.90;;;;;;5019854;28;20412;-82
2022/10/28 09:55:18;;;;;;;76.47;8.70;;;19.00;99.90;;;;;;5019317;28;20507;-82
2022/10/28 09:57:43;;;;;;;74.70;8.00;;;19.20;99.90;;;;;;5018518;28;20397;-81
2022/10/28 10:00:12;;;;;;;80.30;10.20;;;19.40;99.90;;;;;;5032705;28;20436;-82
2022/10/28 10:02:39;;;;;;;79.43;9.73;;;19.50;99.90;;;;;;5019446;28;20190;-81
2022/10/28 10:05:16;;;;;;;77.13;12.37;;;19.70;99.90;;;;;;5018950;28;20444;-81
2022/10/28 10:08:04;;;;;;;82.43;17.17;;;19.80;99.90;;;;;;5018000;28;20393;-81
2022/10/28 10:10:51;;;;;;;75.30;18.00;;;19.90;99.90;;;;;;5017742;28;20474;-81
2022/10/28 10:13:23;;;;;;;82.23;24.53;;;20.10;99.90;;;;;;5018935;28;20405;-81
2022/10/28 10:15:53;;;;;;;82.30;23.63;;;20.30;99.90;;;;;;5018981;28;20464;-81
2022/10/28 10:18:25;;;;;;;82.87;23.27;;;20.60;99.90;;;;;;5018712;28;20386;-81
2022/10/28 10:21:00;;;;;;;80.13;29.70;;;20.60;99.90;;;;;;5018415;28;20429;-81
2022/10/28 10:23:37;;;;;;;84.80;29.63;;;20.60;99.90;;;;;;5017244;28;20397;-81
2022/10/28 10:26:12;;;;;;;82.63;31.53;;;20.60;99.90;;;;;;5018414;28;20421;-81
2022/10/28 10:28:44;;;;;;;84.37;32.83;;;20.60;99.90;;;;;;5017707;28;20460;-81
2022/10/28 10:31:19;;;;;;;81.13;28.53;;;20.70;99.90;;;;;;5018546;28;20417;-81
2022/10/28 10:33:49;;;;;;;90.03;28.30;;;20.70;99.90;;;;;;5017885;28;20445;-81
2022/10/28 10:36:17;;;;;;;88.00;34.87;;;20.70;99.90;;;;;;5018055;28;20480;-81
2022/10/28 10:38:49;;;;;;;83.27;34.10;;;20.70;99.90;;;;;;5018318;28;20440;-81
2022/10/28 10:41:38;;;;;;;83.90;30.80;;;20.70;99.90;;;;;;5017017;28;20487;-81
2022/10/28 10:44:22;;;;;;;90.90;39.43;;;20.80;99.90;;;;;;5017712;28;20765;-81
2022/10/28 10:47:00;;;;;;;83.80;33.50;;;20.90;99.90;;;;;;5019198;28;20393;-81
2022/10/28 10:49:27;;;;;;;81.00;26.67;;;21.00;99.90;;;;;;5017251;28;20424;-81
2022/10/28 10:51:59;;;;;;;81.53;31.00;;;21.10;99.90;;;;;;5018445;28;20415;-81
2022/10/28 10:54:29;;;;;;;89.60;28.87;;;21.20;99.90;;;;;;5019175;28;20417;-81
2022/10/28 10:57:09;;;;;;;78.70;26.53;;;21.20;99.90;;;;;;5019285;28;20436;-81
2022/10/28 10:59:36;;;;;;;83.83;24.40;;;21.30;99.90;;;;;;5018410;28;20507;-81
2022/10/28 11:02:18;;;;;;;84.87;19.40;;;21.40;99.90;;;;;;5020385;28;20958;-83
2022/10/28 11:04:50;;;;;;;77.83;13.40;;;21.70;99.90;;;;;;5035097;28;20398;-82
2022/10/28 11:07:16;;;;;;;83.70;16.10;;;21.90;99.90;;;;;;5018532;28;20476;-81
2022/10/28 11:09:47;;;;;;;74.60;9.10;;;22.10;99.90;;;;;;5019286;28;20988;-81
2022/10/28 11:12:23;;;;;;;79.03;7.63;;;22.30;98.10;;;;;;5018583;28;20385;-81
2022/10/28 11:15:13;;;;;;;77.67;7.50;;;22.50;96.00;;;;;;5018609;28;20389;-81
2022/10/28 11:17:39;;;;;;;81.47;6.43;;;22.60;91.70;;;;;;4987502;28;21007;-81
2022/10/28 11:20:49;;;;;;;72.03;6.90;;;22.70;84.90;;;;;;5018040;28;20424;-81
2022/10/28 11:23:29;;;;;;;75.73;7.17;;;22.90;75.40;;;;;;4990365;28;20186;-81
2022/10/28 11:26:02;;;;;;;74.43;6.13;;;23.10;79.40;;;;;;5126242;23;20508;-85
2022/10/28 11:29:02;;;;;;;82.57;6.43;;;23.10;68.90;;;;;;5024335;28;20411;-85
2022/10/28 11:32:09;;;;;;;77.63;5.70;;;23.20;48.50;;;;;;5037935;28;20459;-86
2022/10/28 11:34:35;;;;;;;79.90;5.73;;;23.30;47.50;;;;;;4978816;28;20399;-86
2022/10/28 11:37:19;;;;;;;75.17;8.30;;;23.20;45.70;;;;;;5021444;28;20400;-86
2022/10/28 11:40:03;;;;;;;80.77;13.47;;;23.20;46.70;;;;;;5038751;28;20199;-86
2022/10/28 11:42:42;;;;;;;78.97;15.60;;;23.00;34.20;;;;;;5039496;28;20448;-86
2022/10/28 11:45:21;;;;;;;85.67;15.30;;;23.00;30.80;;;;;;5039082;28;20385;-86
2022/10/28 11:48:05;;;;;;;82.07;17.90;;;23.00;37.40;;;;;;5039369;28;20393;-86
2022/10/28 11:50:40;;;;;;;83.40;19.60;;;23.00;31.40;;;;;;5039098;28;20423;-86
2022/10/28 11:53:52;;;;;;;78.53;18.27;;;23.10;41.50;;;;;;5039640;28;20500;-86
2022/10/28 11:56:26;;;;;;;74.40;15.70;;;23.20;19.30;;;;;;5024795;28;20416;-86
2022/10/28 11:59:00;;;;;;;78.57;20.57;;;23.30;20.50;;;;;;5038240;28;20785;-86
2022/10/28 12:01:52;;;;;;;79.63;19.87;;;23.30;28.10;;;;;;5039155;28;21015;-86
2022/10/28 12:04:26;;;;;;;78.87;18.20;;;23.30;24.70;;;;;;5040911;28;20423;-86
2022/10/28 12:07:23;;;;;;;81.23;16.57;;;23.20;20.20;;;;;;5040355;28;20387;-85
2022/10/28 12:09:52;;;;;;;74.87;15.90;;;23.20;18.10;;;;;;4986282;28;20449;-86
2022/10/28 12:12:25;;;;;;;80.67;14.17;;;23.30;21.30;;;;;;5040708;28;20380;-86
2022/10/28 12:15:00;;;;;;;87.07;15.60;;;23.50;23.20;;;;;;5040878;28;20416;-86
2022/10/28 12:17:34;;;;;;;81.00;13.20;;;23.50;9.60;;;;;;5040514;28;20826;-86
2022/10/28 12:20:36;;;;;;;76.67;14.23;;;23.60;11.70;;;;;;5039051;28;20896;-86
2022/10/28 12:23:09;;;;;;;77.13;14.60;;;23.60;8.50;;;;;;5039860;28;20479;-86
2022/10/28 12:25:38;;;;;;;76.63;14.27;;;23.70;2.50;;;;;;5040191;28;20451;-86
2022/10/28 12:28:14;;;;;;;74.17;14.00;;;23.60;1.00;;;;;;5039355;28;20412;-86
2022/10/28 12:30:41;;;;;;;77.87;16.23;;;23.60;6.80;;;;;;5040260;28;20392;-86
2022/10/28 12:33:13;;;;;;;79.47;13.93;;;23.70;1.00;;;;;;5040049;28;20435;-86
2022/10/28 12:35:56;;;;;;;75.20;12.97;;;23.60;1.00;;;;;;5040597;28;20377;-86
2022/10/28 12:38:39;;;;;;;79.27;15.17;;;23.60;1.00;;;;;;5040523;28;20764;-87
2022/10/28 12:41:15;;;;;;;79.97;13.50;;;23.50;3.50;;;;;;5039410;28;20792;-86
2022/10/28 12:43:46;;;;;;;80.63;15.30;;;23.50;6.00;;;;;;5039885;28;20412;-86
2022/10/28 12:46:23;;;;;;;80.57;14.13;;;23.40;8.30;;;;;;5038470;28;20407;-86
2022/10/28 12:49:02;;;;;;;81.00;13.83;;;23.40;7.30;;;;;;5039446;28;20509;-86
2022/10/28 12:51:32;;;;;;;78.50;16.23;;;23.50;1.00;;;;;;5037884;28;20418;-86
2022/10/28 12:53:58;;;;;;;78.73;12.80;;;23.60;8.80;;;;;;5038464;28;20420;-86